createdAt,value
2019-05-10T00:00:15.920Z,3.95
2019-05-10T00:03:03.195Z,3.95
2019-05-10T00:05:50.492Z,5.30
2019-05-10T00:08:37.416Z,6.62
2019-05-10T00:11:32.394Z,4.92
2019-05-10T00:14:14.024Z,5.80
2019-05-10T00:16:43.493Z,3.55
2019-05-10T00:19:12.923Z,6.17
2019-05-10T00:21:42.387Z,4.25
2019-05-10T00:24:11.867Z,3.00
2019-05-10T00:26:41.331Z,3.70
2019-05-10T00:29:10.761Z,4.15
2019-05-10T00:31:40.190Z,5.65
2019-05-10T00:34:09.640Z,5.55
2019-05-10T00:36:39.103Z,3.55
2019-05-10T00:39:08.520Z,3.42
2019-05-10T00:41:37.936Z,4.25
2019-05-10T00:44:07.404Z,6.12
2019-05-10T00:46:36.824Z,4.33
2019-05-10T00:49:06.777Z,4.28
2019-05-10T00:51:36.361Z,3.52
2019-05-10T00:54:05.809Z,5.12
2019-05-10T00:56:35.237Z,3.65
2019-05-10T00:59:04.710Z,2.00
2019-05-10T01:01:34.117Z,5.55
2019-05-10T01:04:03.560Z,5.33
2019-05-10T01:06:32.958Z,3.12
2019-05-10T01:09:02.455Z,3.83
2019-05-10T01:11:31.911Z,7.35
2019-05-10T01:14:01.366Z,4.45
2019-05-10T01:16:30.797Z,2.52
2019-05-10T01:19:00.253Z,3.87
2019-05-10T01:21:29.696Z,3.17
2019-05-10T01:23:59.143Z,1.90
2019-05-10T01:26:28.567Z,6.53
2019-05-10T01:28:58.282Z,4.70
2019-05-10T01:31:27.744Z,4.92
2019-05-10T01:33:57.164Z,2.77
2019-05-10T01:36:26.581Z,1.95
2019-05-10T01:38:56.037Z,3.90
2019-05-10T01:41:25.557Z,5.80
2019-05-10T01:43:54.996Z,2.30
2019-05-10T01:46:24.482Z,8.30
2019-05-10T01:48:53.960Z,4.90
2019-05-10T01:51:23.457Z,2.80
2019-05-10T01:53:52.900Z,4.53
2019-05-10T01:56:22.345Z,5.70
2019-05-10T01:58:51.764Z,5.67
2019-05-10T02:01:21.247Z,2.67
2019-05-10T02:03:51.082Z,3.87
2019-05-10T02:06:20.494Z,4.22
2019-05-10T02:08:49.916Z,2.87
2019-05-10T02:11:19.362Z,3.87
2019-05-10T02:13:48.825Z,4.30
2019-05-10T02:16:18.258Z,4.30
2019-05-10T02:18:47.697Z,6.20
2019-05-10T02:21:17.131Z,7.42
2019-05-10T02:23:46.702Z,9.78
2019-05-10T02:26:16.142Z,3.70
2019-05-10T02:28:45.597Z,2.60
2019-05-10T02:31:15.135Z,5.05
2019-05-10T02:33:44.622Z,2.08
2019-05-10T02:36:14.185Z,5.60
2019-05-10T02:38:43.610Z,6.05
2019-05-10T02:41:13.079Z,2.20
2019-05-10T02:43:42.529Z,2.27
2019-05-10T02:46:11.950Z,2.30
2019-05-10T02:48:41.407Z,4.40
2019-05-10T02:51:13.559Z,6.95
2019-05-10T02:53:43.030Z,4.00
2019-05-10T02:56:29.680Z,4.70
2019-05-10T02:58:48.237Z,4.78
2019-05-10T03:01:20.671Z,4.83
2019-05-10T03:03:53.314Z,3.62
2019-05-10T03:06:24.907Z,3.72
2019-05-10T03:08:55.291Z,4.45
2019-05-10T03:11:26.152Z,5.62
2019-05-10T03:13:57.053Z,3.27
2019-05-10T03:16:26.455Z,3.02
2019-05-10T03:18:56.576Z,2.52
2019-05-10T03:21:28.705Z,6.78
2019-05-10T03:23:58.115Z,7.00
2019-05-10T03:26:27.538Z,4.15
2019-05-10T03:28:56.963Z,5.10
2019-05-10T03:31:26.558Z,3.50
2019-05-10T03:33:57.743Z,3.15
2019-05-10T03:36:27.328Z,2.55
2019-05-10T03:38:57.108Z,4.45
2019-05-10T03:41:26.524Z,5.75
2019-05-10T03:43:55.945Z,2.80
2019-05-10T03:46:25.348Z,13.85
2019-05-10T03:48:54.778Z,4.53
2019-05-10T03:51:24.176Z,5.40
2019-05-10T03:53:53.612Z,6.33
2019-05-10T03:56:23.486Z,4.35
2019-05-10T03:58:52.891Z,4.47
2019-05-10T04:01:22.316Z,4.03
2019-05-10T04:03:51.760Z,4.60
2019-05-10T04:06:21.186Z,3.55
2019-05-10T04:08:50.621Z,7.60
2019-05-10T04:11:20.054Z,4.30
2019-05-10T04:13:49.469Z,4.90
2019-05-10T04:16:18.873Z,5.37
2019-05-10T04:18:48.316Z,3.30
2019-05-10T04:21:17.737Z,3.22
2019-05-10T04:23:47.174Z,3.20
2019-05-10T04:26:16.606Z,3.90
2019-05-10T04:28:46.017Z,4.25
2019-05-10T04:31:15.615Z,4.97
2019-05-10T04:33:45.011Z,3.65
2019-05-10T04:36:14.434Z,4.50
2019-05-10T04:38:43.831Z,4.45
2019-05-10T04:41:13.281Z,4.92
2019-05-10T04:43:42.733Z,5.80
2019-05-10T04:46:12.591Z,6.58
2019-05-10T04:48:42.059Z,7.67
2019-05-10T04:51:11.509Z,6.03
2019-05-10T04:53:40.962Z,8.30
2019-05-10T04:56:10.377Z,7.12
2019-05-10T04:58:39.825Z,8.43
2019-05-10T05:01:09.279Z,8.45
2019-05-10T05:03:38.669Z,8.43
2019-05-10T05:06:08.098Z,9.70
2019-05-10T05:08:37.499Z,9.90
2019-05-10T05:11:06.918Z,10.65
2019-05-10T05:13:36.370Z,11.97
2019-05-10T05:16:05.918Z,15.20
2019-05-10T05:18:35.316Z,13.45
2019-05-10T05:21:04.756Z,13.05
2019-05-10T05:23:34.223Z,16.45
2019-05-10T05:26:03.725Z,12.70
2019-05-10T05:28:33.162Z,11.80
2019-05-10T05:31:02.745Z,13.90
2019-05-10T05:33:32.189Z,15.15
2019-05-10T05:36:02.409Z,12.95
2019-05-10T05:38:32.081Z,12.75
2019-05-10T05:41:01.540Z,13.80
2019-05-10T05:43:30.962Z,13.20
2019-05-10T05:46:00.477Z,17.92
2019-05-10T05:48:39.980Z,12.45
2019-05-10T05:51:01.516Z,17.50
2019-05-10T05:53:35.714Z,13.65
2019-05-10T05:56:03.608Z,11.40
2019-05-10T05:58:38.060Z,12.20
2019-05-10T06:01:04.517Z,11.80
2019-05-10T06:03:34.019Z,13.90
2019-05-10T06:06:15.262Z,15.40
2019-05-10T06:08:34.598Z,15.15
2019-05-10T06:11:04.316Z,13.78
2019-05-10T06:13:33.785Z,14.35
2019-05-10T06:16:06.399Z,13.13
2019-05-10T06:18:34.631Z,17.70
2019-05-10T06:21:04.056Z,14.68
2019-05-10T06:23:35.092Z,16.37
2019-05-10T06:26:05.915Z,13.43
2019-05-10T06:28:57.719Z,15.20
2019-05-10T06:31:06.772Z,13.28
2019-05-10T06:33:39.624Z,14.63
2019-05-10T06:36:07.326Z,14.80
2019-05-10T06:38:36.814Z,12.03
2019-05-10T06:41:10.023Z,12.98
2019-05-10T06:43:38.530Z,13.28
2019-05-10T06:46:08.419Z,12.10
2019-05-10T06:48:37.829Z,13.10
2019-05-10T06:51:09.753Z,11.43
2019-05-10T06:53:42.234Z,15.53
2019-05-10T06:56:09.502Z,10.68
2019-05-10T06:58:39.277Z,12.07
2019-05-10T07:01:08.786Z,10.40
2019-05-10T07:03:38.337Z,12.43
2019-05-10T07:06:07.830Z,13.15
2019-05-10T07:08:44.358Z,14.07
2019-05-10T07:11:08.449Z,11.68
2019-05-10T07:13:40.324Z,13.22
2019-05-10T07:16:09.339Z,17.07
2019-05-10T07:18:38.769Z,13.70
2019-05-10T07:21:08.775Z,15.90
2019-05-10T07:23:39.021Z,11.53
2019-05-10T07:26:09.888Z,12.78
2019-05-10T07:28:39.914Z,12.47
2019-05-10T07:31:09.440Z,16.20
2019-05-10T07:33:40.245Z,31.87
2019-05-10T07:36:14.654Z,12.58
2019-05-10T07:38:41.204Z,11.48
2019-05-10T07:41:10.649Z,11.68
2019-05-10T07:43:41.307Z,16.90
2019-05-10T07:46:10.739Z,13.88
2019-05-10T07:48:41.332Z,10.85
2019-05-10T07:51:11.239Z,12.45
2019-05-10T07:53:40.657Z,12.05
2019-05-10T07:56:10.111Z,10.45
2019-05-10T07:58:43.270Z,10.48
2019-05-10T08:01:11.475Z,9.08
2019-05-10T08:03:47.950Z,9.45
2019-05-10T08:06:15.212Z,10.35
2019-05-10T08:08:44.131Z,9.80
2019-05-10T08:11:13.738Z,13.30
2019-05-10T08:13:43.950Z,13.95
2019-05-10T08:16:19.539Z,13.95
2019-05-10T08:18:44.554Z,15.23
2019-05-10T08:21:21.730Z,18.52
2019-05-10T08:23:45.101Z,13.83
2019-05-10T08:26:20.329Z,8.05
2019-05-10T08:28:46.002Z,13.58
2019-05-10T08:31:15.819Z,10.08
2019-05-10T08:33:56.246Z,9.40
2019-05-10T08:36:16.568Z,10.55
2019-05-10T08:38:58.450Z,9.25
2019-05-10T08:41:18.444Z,11.60
2019-05-10T08:43:47.976Z,10.15
2019-05-10T08:46:19.497Z,10.68
2019-05-10T08:48:51.391Z,13.30
2019-05-10T08:51:19.657Z,12.50
2019-05-10T08:53:53.422Z,12.33
2019-05-10T08:56:21.661Z,13.43
2019-05-10T08:58:53.740Z,13.58
2019-05-10T09:01:29.957Z,10.75
2019-05-10T09:03:59.341Z,10.72
2019-05-10T09:06:24.650Z,10.72
2019-05-10T09:09:01.831Z,12.43
2019-05-10T09:11:25.488Z,9.68
2019-05-10T09:13:57.777Z,14.20
2019-05-10T09:16:29.117Z,11.75
2019-05-10T09:18:57.218Z,11.70
2019-05-10T09:21:26.691Z,10.53
2019-05-10T09:24:01.568Z,10.63
2019-05-10T09:26:27.905Z,11.70
2019-05-10T09:28:57.918Z,11.00
2019-05-10T09:31:27.617Z,11.63
2019-05-10T09:33:57.207Z,7.72
2019-05-10T09:36:31.182Z,15.08
2019-05-10T09:38:58.164Z,9.18
2019-05-10T09:41:35.992Z,8.38
2019-05-10T09:43:59.626Z,8.93
2019-05-10T09:46:29.279Z,8.10
2019-05-10T09:49:13.740Z,11.33
2019-05-10T09:51:33.341Z,7.17
2019-05-10T09:54:02.740Z,11.57
2019-05-10T09:56:39.553Z,7.22
2019-05-10T09:59:03.365Z,6.92
2019-05-10T10:01:32.774Z,7.75
2019-05-10T10:04:02.433Z,7.80
2019-05-10T10:06:31.834Z,6.42
2019-05-10T10:09:01.641Z,7.28
2019-05-10T10:11:33.426Z,7.22
2019-05-10T10:14:02.941Z,8.45
2019-05-10T10:16:33.050Z,8.00
2019-05-10T10:19:03.458Z,6.53
2019-05-10T10:21:35.583Z,5.78
2019-05-10T10:24:12.632Z,5.33
2019-05-10T10:26:37.933Z,5.42
2019-05-10T10:29:07.713Z,6.92
2019-05-10T10:31:48.292Z,7.05
2019-05-10T10:34:08.538Z,5.17
2019-05-10T10:36:40.186Z,6.80
2019-05-10T10:39:09.655Z,7.42
2019-05-10T10:41:39.059Z,4.97
2019-05-10T10:44:09.129Z,7.53
2019-05-10T10:46:38.938Z,4.95
2019-05-10T10:49:10.487Z,4.62
2019-05-10T10:51:39.988Z,6.65
2019-05-10T10:54:09.523Z,7.25
2019-05-10T10:56:39.333Z,3.20
2019-05-10T10:59:08.742Z,4.35
2019-05-10T11:01:49.132Z,3.75
2019-05-10T11:04:09.860Z,3.85
2019-05-10T11:06:39.382Z,3.55
2019-05-10T11:09:09.218Z,5.80
2019-05-10T11:11:43.927Z,4.10
2019-05-10T11:14:11.093Z,3.00
2019-05-10T11:16:41.288Z,5.40
2019-05-10T11:19:15.301Z,9.18
2019-05-10T11:21:42.303Z,4.17
2019-05-10T11:24:18.045Z,2.65
2019-05-10T11:26:44.797Z,3.20
2019-05-10T11:29:21.994Z,2.02
2019-05-10T11:31:48.534Z,3.75
2019-05-10T11:34:16.281Z,4.85
2019-05-10T11:36:46.310Z,7.17
2019-05-10T11:39:26.009Z,4.40
2019-05-10T11:41:52.846Z,4.12
2019-05-10T11:44:22.083Z,6.05
2019-05-10T11:46:52.294Z,5.10
2019-05-10T11:49:22.066Z,4.62
2019-05-10T11:54:23.055Z,5.05
2019-05-10T11:56:57.804Z,2.55
2019-05-10T11:59:03.904Z,8.38
2019-05-10T11:59:27.344Z,6.45
2019-05-10T12:01:57.871Z,3.58
2019-05-10T12:04:36.235Z,2.30
2019-05-10T12:06:56.901Z,4.08
2019-05-10T12:09:26.350Z,1.57
2019-05-10T12:11:57.000Z,1.57
2019-05-10T12:14:26.570Z,7.12
2019-05-10T12:16:56.487Z,2.65
2019-05-10T12:19:25.983Z,8.35
2019-05-10T12:21:55.987Z,5.42
2019-05-10T12:24:45.157Z,3.25
2019-05-10T12:27:21.996Z,5.50
2019-05-10T12:29:31.526Z,2.50
2019-05-10T12:32:00.094Z,3.47
2019-05-10T12:34:31.125Z,3.40
2019-05-10T12:37:03.788Z,4.35
2019-05-10T12:39:32.460Z,9.80
2019-05-10T12:42:02.574Z,2.90
2019-05-10T12:44:33.521Z,2.22
2019-05-10T12:47:03.475Z,9.13
2019-05-10T12:49:36.157Z,1.75
2019-05-10T12:52:03.980Z,6.85
2019-05-10T12:54:33.438Z,4.12
2019-05-10T12:57:03.259Z,1.35
2019-05-10T12:59:34.883Z,1.95
2019-05-10T13:02:04.522Z,3.83
2019-05-10T13:04:40.365Z,2.00
2019-05-10T13:07:06.266Z,4.78
2019-05-10T13:09:40.340Z,2.98
2019-05-10T13:12:06.937Z,1.65
2019-05-10T13:14:40.348Z,4.67
2019-05-10T13:17:09.776Z,3.40
2019-05-10T13:19:38.576Z,2.50
2019-05-10T13:22:07.983Z,2.27
2019-05-10T13:24:37.418Z,2.35
2019-05-10T13:27:06.874Z,8.48
2019-05-10T13:29:40.586Z,5.43
2019-05-10T13:32:07.758Z,6.20
2019-05-10T13:34:37.221Z,1.30
2019-05-10T13:37:06.658Z,1.95
2019-05-10T13:39:36.102Z,2.15
2019-05-10T13:42:09.345Z,3.37
2019-05-10T13:44:37.051Z,2.95
2019-05-10T13:47:07.709Z,3.95
2019-05-10T13:49:37.147Z,2.05
2019-05-10T13:52:06.649Z,8.60
2019-05-10T13:54:37.884Z,5.45
2019-05-10T13:57:07.182Z,1.40
2019-05-10T13:59:36.734Z,1.70
2019-05-10T14:02:06.188Z,1.75
2019-05-10T14:04:38.655Z,2.10
2019-05-10T14:07:06.728Z,4.62
2019-05-10T14:09:36.461Z,1.15
2019-05-10T14:12:06.278Z,1.98
2019-05-10T14:14:35.689Z,1.50
2019-05-10T14:17:05.200Z,3.12
2019-05-10T14:19:35.981Z,1.20
2019-05-10T14:22:05.968Z,1.32
2019-05-10T14:24:35.395Z,2.35
2019-05-10T14:27:04.826Z,1.00
2019-05-10T14:29:36.719Z,2.90
2019-05-10T14:32:05.415Z,2.45
2019-05-10T14:34:37.892Z,1.00
2019-05-10T14:37:05.953Z,2.62
2019-05-10T14:39:35.374Z,2.35
2019-05-10T14:42:04.848Z,1.98
2019-05-10T14:44:38.255Z,1.25
2019-05-10T14:47:05.938Z,4.65
2019-05-10T14:49:35.354Z,2.92
2019-05-10T14:52:04.834Z,1.90
2019-05-10T14:54:43.115Z,1.50
2019-05-10T14:57:05.701Z,1.20
2019-05-10T14:59:35.145Z,1.12
2019-05-10T15:02:04.704Z,2.55
2019-05-10T15:04:49.438Z,1.92
2019-05-10T15:07:08.755Z,3.60
2019-05-10T15:09:36.830Z,2.80
2019-05-10T15:12:10.098Z,9.90
2019-05-10T15:14:37.371Z,1.20
2019-05-10T15:17:06.805Z,1.20
2019-05-10T15:19:36.310Z,1.05
2019-05-10T15:22:05.768Z,3.98
2019-05-10T15:24:35.172Z,2.20
2019-05-10T15:27:04.589Z,3.08
2019-05-10T15:29:34.050Z,47.05
2019-05-10T15:32:03.453Z,5.42
2019-05-10T15:34:32.894Z,1.67
2019-05-10T15:37:08.791Z,5.72
2019-05-10T15:39:33.435Z,5.78
2019-05-10T15:42:03.166Z,2.10
2019-05-10T15:44:33.842Z,4.05
2019-05-10T15:47:03.530Z,14.13
2019-05-10T15:49:33.013Z,7.33
2019-05-10T15:52:16.885Z,15.80
2019-05-10T15:54:38.076Z,7.28
2019-05-10T15:57:05.009Z,5.87
2019-05-10T15:59:34.448Z,3.37
2019-05-10T16:02:03.998Z,3.00
2019-05-10T16:04:33.459Z,3.15
2019-05-10T16:07:03.154Z,2.45
2019-05-10T16:09:32.994Z,1.75
2019-05-10T16:12:08.300Z,2.08
2019-05-10T16:14:39.156Z,2.08
2019-05-10T16:17:04.669Z,9.23
2019-05-10T16:19:34.528Z,2.40
2019-05-10T16:22:03.953Z,2.80
2019-05-10T16:24:33.746Z,2.25
2019-05-10T16:27:05.556Z,1.55
2019-05-10T16:29:39.816Z,1.70
2019-05-10T16:32:06.346Z,1.10
2019-05-10T16:34:36.086Z,1.60
2019-05-10T16:37:05.502Z,1.37
2019-05-10T16:39:34.961Z,1.20
2019-05-10T16:42:04.490Z,1.35
2019-05-10T16:44:33.897Z,3.75
2019-05-10T16:47:03.372Z,1.95
2019-05-10T16:49:32.855Z,3.45
2019-05-10T16:52:02.294Z,1.72
2019-05-10T16:54:31.762Z,1.40
2019-05-10T16:57:01.729Z,1.42
2019-05-10T16:59:31.488Z,3.25
2019-05-10T17:02:04.679Z,3.22
2019-05-10T17:04:37.872Z,2.60
2019-05-10T17:07:03.601Z,1.32
2019-05-10T17:09:33.047Z,1.95
2019-05-10T17:12:03.538Z,3.77
2019-05-10T17:14:32.986Z,2.58
2019-05-10T17:17:02.441Z,1.52
2019-05-10T17:19:34.094Z,1.40
2019-05-10T17:22:02.972Z,1.52
2019-05-10T17:24:32.431Z,3.40
2019-05-10T17:27:02.178Z,2.55
2019-05-10T17:29:31.643Z,1.10
2019-05-10T17:32:01.059Z,1.87
2019-05-10T17:34:30.541Z,3.17
2019-05-10T17:36:59.999Z,1.25
2019-05-10T17:39:32.063Z,2.62
2019-05-10T17:42:03.153Z,1.92
2019-05-10T17:44:32.478Z,1.90
2019-05-10T17:47:01.902Z,3.60
2019-05-10T17:49:31.379Z,2.05
2019-05-10T17:52:01.126Z,2.65
2019-05-10T17:54:33.774Z,2.80
2019-05-10T17:57:01.689Z,2.12
2019-05-10T17:59:31.185Z,4.17
2019-05-10T18:02:00.702Z,3.95
2019-05-10T18:04:30.115Z,3.50
2019-05-10T18:06:59.566Z,2.05
2019-05-10T18:09:29.103Z,4.50
2019-05-10T18:11:58.525Z,1.85
2019-05-10T18:14:29.683Z,1.47
2019-05-10T18:16:59.225Z,1.45
2019-05-10T18:19:28.801Z,1.77
2019-05-10T18:22:00.775Z,2.83
2019-05-10T18:24:30.174Z,2.30
2019-05-10T18:27:04.926Z,3.27
2019-05-10T18:29:34.510Z,2.42
2019-05-10T18:32:04.144Z,3.05
2019-05-10T18:34:37.491Z,5.33
2019-05-10T18:37:06.922Z,1.62
2019-05-10T18:39:37.150Z,2.58
2019-05-10T18:42:07.476Z,1.75
2019-05-10T18:44:40.262Z,2.98
2019-05-10T18:47:12.241Z,6.67
2019-05-10T18:49:41.808Z,4.60
2019-05-10T18:52:11.682Z,5.67
2019-05-10T18:54:41.159Z,3.95
2019-05-10T18:57:19.069Z,4.05
2019-05-10T18:59:47.121Z,3.30
2019-05-10T19:02:19.667Z,3.50
2019-05-10T19:04:52.027Z,4.40
2019-05-10T19:07:20.036Z,4.05
2019-05-10T19:09:49.479Z,3.80
2019-05-10T19:12:21.995Z,2.62
2019-05-10T19:14:50.026Z,3.15
2019-05-10T19:17:20.449Z,3.42
2019-05-10T19:19:51.152Z,4.72
2019-05-10T19:22:23.128Z,3.90
2019-05-10T19:24:56.667Z,5.00
2019-05-10T19:27:25.174Z,5.17
2019-05-10T19:29:54.820Z,7.00
2019-05-10T19:32:24.605Z,8.10
2019-05-10T19:34:57.511Z,3.55
2019-05-10T19:37:30.163Z,2.67
2019-05-10T19:39:57.673Z,6.50
2019-05-10T19:42:27.162Z,5.85
2019-05-10T19:44:57.042Z,2.42
2019-05-10T19:47:27.381Z,3.40
2019-05-10T19:50:03.345Z,4.05
2019-05-10T19:52:32.841Z,2.85
2019-05-10T19:55:03.442Z,2.95
2019-05-10T19:57:33.297Z,3.77
2019-05-10T20:00:02.721Z,2.70
2019-05-10T20:02:32.707Z,2.60
2019-05-10T20:05:02.663Z,3.10
2019-05-10T20:07:45.509Z,3.12
2019-05-10T20:10:07.550Z,9.05
2019-05-10T20:12:36.103Z,8.23
2019-05-10T20:15:05.578Z,3.92
2019-05-10T20:17:36.802Z,4.15
2019-05-10T20:20:07.453Z,10.63
2019-05-10T20:22:36.941Z,5.35
2019-05-10T20:25:07.356Z,6.00
2019-05-10T20:27:36.805Z,5.47
2019-05-10T20:30:07.094Z,5.47
2019-05-10T20:32:36.548Z,3.90
2019-05-10T20:35:06.605Z,5.17
2019-05-10T20:37:36.415Z,6.20
2019-05-10T20:40:06.339Z,9.20
2019-05-10T20:42:35.785Z,4.10
2019-05-10T20:45:08.067Z,9.53
2019-05-10T20:47:37.201Z,4.53
2019-05-10T20:50:07.271Z,4.40
2019-05-10T20:52:36.990Z,3.72
2019-05-10T20:55:07.014Z,3.83
2019-05-10T20:57:36.447Z,4.20
2019-05-10T21:00:06.641Z,4.87
2019-05-10T21:02:36.090Z,4.45
2019-05-10T21:05:05.806Z,7.10
2019-05-10T21:07:35.516Z,5.12
2019-05-10T21:10:05.446Z,3.62
2019-05-10T21:12:35.265Z,4.00
2019-05-10T21:15:04.818Z,5.62
2019-05-10T21:17:34.264Z,14.18
2019-05-10T21:20:03.846Z,9.10
2019-05-10T21:22:33.298Z,11.35
2019-05-10T21:25:02.705Z,7.05
2019-05-10T21:27:32.144Z,7.80
2019-05-10T21:30:02.261Z,5.37
2019-05-10T21:32:31.982Z,4.53
2019-05-10T21:35:01.410Z,6.17
2019-05-10T21:37:30.842Z,3.85
2019-05-10T21:40:00.365Z,4.17
2019-05-10T21:42:29.829Z,5.40
2019-05-10T21:44:59.231Z,6.20
2019-05-10T21:47:28.717Z,3.92
2019-05-10T21:49:58.132Z,6.03
2019-05-10T21:52:27.586Z,8.95
2019-05-10T21:54:57.326Z,5.37
2019-05-10T21:57:26.785Z,5.08
2019-05-10T21:59:56.242Z,11.78
2019-05-10T22:02:25.646Z,8.63
2019-05-10T22:04:55.079Z,8.25
2019-05-10T22:07:24.511Z,5.08
2019-05-10T22:09:53.987Z,5.72
2019-05-10T22:12:23.454Z,6.10
2019-05-10T22:14:52.873Z,5.67
2019-05-10T22:17:22.290Z,6.92
2019-05-10T22:19:51.703Z,8.90
2019-05-10T22:22:21.152Z,9.18
2019-05-10T22:24:50.596Z,12.35
2019-05-10T22:27:20.451Z,9.65
2019-05-10T22:29:49.998Z,7.37
2019-05-10T22:32:19.441Z,10.48
2019-05-10T22:34:48.880Z,5.22
2019-05-10T22:37:18.337Z,6.42
2019-05-10T22:39:47.762Z,7.47
2019-05-10T22:42:17.194Z,7.70
2019-05-10T22:44:46.987Z,6.80
2019-05-10T22:47:16.406Z,6.28
2019-05-10T22:49:45.810Z,5.62
2019-05-10T22:52:15.218Z,5.70
2019-05-10T22:54:44.637Z,7.60
2019-05-10T22:57:14.072Z,5.78
2019-05-10T22:59:43.487Z,10.08
2019-05-10T23:02:12.909Z,4.83
2019-05-10T23:04:42.383Z,5.65
2019-05-10T23:07:13.657Z,10.75
2019-05-10T23:09:43.086Z,9.58
2019-05-10T23:12:12.517Z,5.75
2019-05-10T23:14:41.918Z,6.15
2019-05-10T23:17:11.400Z,8.23
2019-05-10T23:19:40.822Z,10.60
2019-05-10T23:22:10.226Z,12.68
2019-05-10T23:24:39.991Z,7.00
2019-05-10T23:27:09.417Z,7.55
2019-05-10T23:29:38.878Z,7.95
2019-05-10T23:32:08.286Z,8.48
2019-05-10T23:34:37.731Z,10.08
2019-05-10T23:37:07.119Z,10.23
2019-05-10T23:39:40.631Z,9.00
2019-05-10T23:42:07.694Z,8.60
2019-05-10T23:44:37.153Z,9.65
2019-05-10T23:47:06.591Z,16.75
2019-05-10T23:49:36.032Z,12.33
2019-05-10T23:52:05.659Z,17.17
2019-05-10T23:54:35.326Z,12.43
2019-05-10T23:57:04.756Z,8.33
2019-05-10T23:59:34.165Z,10.38
